sensor_id;sensor_type;location;lat;lon;timestamp;pressure;altitude;pressure_sealevel;temperature;humidity
43934;BME280;59081;42.706;23.306;2023-09-18T00:00:08;95636.97;;;16.19;100.00
43934;BME280;59081;42.706;23.306;2023-09-18T00:05:11;95630.78;;;16.06;100.00
43934;BME280;59081;42.706;23.306;2023-09-18T00:10:30;95668.31;;;16.29;100.00
43934;BME280;59081;42.706;23.306;2023-09-18T00:15:31;95626.31;;;16.09;100.00
43934;BME280;59081;42.706;23.306;2023-09-18T00:20:31;95687.97;;;16.44;100.00
43934;BME280;59081;42.706;23.306;2023-09-18T00:25:32;95614.88;;;16.16;100.00
43934;BME280;59081;42.706;23.306;2023-09-18T00:30:32;95688.56;;;16.57;100.00
43934;BME280;59081;42.706;23.306;2023-09-18T00:35:33;95544.44;;;15.55;100.00
43934;BME280;59081;42.706;23.306;2023-09-18T00:40:33;95576.13;;;15.76;100.00
43934;BME280;59081;42.706;23.306;2023-09-18T00:45:35;95599.28;;;16.00;100.00
43934;BME280;59081;42.706;23.306;2023-09-18T00:50:38;95698.00;;;16.68;100.00
43934;BME280;59081;42.706;23.306;2023-09-18T00:55:40;95660.13;;;16.34;100.00
43934;BME280;59081;42.706;23.306;2023-09-18T01:00:40;95661.22;;;16.46;100.00
43934;BME280;59081;42.706;23.306;2023-09-18T01:05:41;95633.41;;;16.19;100.00
43934;BME280;59081;42.706;23.306;2023-09-18T01:10:53;95629.69;;;16.13;100.00
43934;BME280;59081;42.706;23.306;2023-09-18T01:16:24;95686.88;;;16.41;100.00
43934;BME280;59081;42.706;23.306;2023-09-18T01:21:22;95649.94;;;16.22;100.00
43934;BME280;59081;42.706;23.306;2023-09-18T01:26:23;95693.66;;;16.49;100.00
43934;BME280;59081;42.706;23.306;2023-09-18T01:31:23;95625.25;;;16.06;100.00
43934;BME280;59081;42.706;23.306;2023-09-18T01:36:26;95598.50;;;15.81;100.00
43934;BME280;59081;42.706;23.306;2023-09-18T01:41:27;95616.88;;;15.88;100.00
43934;BME280;59081;42.706;23.306;2023-09-18T01:46:28;95625.34;;;15.93;100.00
43934;BME280;59081;42.706;23.306;2023-09-18T01:51:29;95603.13;;;15.93;100.00
43934;BME280;59081;42.706;23.306;2023-09-18T01:56:29;95692.09;;;16.48;100.00
43934;BME280;59081;42.706;23.306;2023-09-18T02:01:30;95589.50;;;15.59;100.00
43934;BME280;59081;42.706;23.306;2023-09-18T02:06:31;95711.25;;;16.37;100.00
43934;BME280;59081;42.706;23.306;2023-09-18T02:11:31;95668.47;;;16.07;100.00
43934;BME280;59081;42.706;23.306;2023-09-18T02:16:49;95621.50;;;15.73;100.00
43934;BME280;59081;42.706;23.306;2023-09-18T02:21:51;95565.66;;;15.30;100.00
43934;BME280;59081;42.706;23.306;2023-09-18T02:26:51;95619.94;;;15.72;100.00
43934;BME280;59081;42.706;23.306;2023-09-18T02:31:52;95654.56;;;16.07;100.00
43934;BME280;59081;42.706;23.306;2023-09-18T02:36:52;95610.97;;;15.77;100.00
43934;BME280;59081;42.706;23.306;2023-09-18T02:41:52;95699.94;;;16.13;100.00
43934;BME280;59081;42.706;23.306;2023-09-18T02:46:53;95670.31;;;16.01;100.00
43934;BME280;59081;42.706;23.306;2023-09-18T02:51:53;95564.13;;;15.20;100.00
43934;BME280;59081;42.706;23.306;2023-09-18T02:56:54;95654.19;;;15.78;100.00
43934;BME280;59081;42.706;23.306;2023-09-18T03:01:54;95644.75;;;15.66;100.00
43934;BME280;59081;42.706;23.306;2023-09-18T03:06:55;95612.13;;;15.39;100.00
43934;BME280;59081;42.706;23.306;2023-09-18T03:11:55;95644.50;;;15.42;100.00
43934;BME280;59081;42.706;23.306;2023-09-18T03:16:55;95663.72;;;15.58;100.00
43934;BME280;59081;42.706;23.306;2023-09-18T03:21:56;95715.97;;;15.91;100.00
43934;BME280;59081;42.706;23.306;2023-09-18T03:26:59;95637.41;;;15.41;100.00
43934;BME280;59081;42.706;23.306;2023-09-18T03:32:00;95701.63;;;15.92;100.00
43934;BME280;59081;42.706;23.306;2023-09-18T03:37:00;95675.31;;;15.66;100.00
43934;BME280;59081;42.706;23.306;2023-09-18T03:42:00;95696.53;;;15.91;100.00
43934;BME280;59081;42.706;23.306;2023-09-18T03:47:01;95607.13;;;15.25;100.00
43934;BME280;59081;42.706;23.306;2023-09-18T03:52:01;95668.72;;;15.73;100.00
43934;BME280;59081;42.706;23.306;2023-09-18T03:57:02;95659.25;;;15.61;100.00
43934;BME280;59081;42.706;23.306;2023-09-18T04:02:03;95707.59;;;15.82;100.00
43934;BME280;59081;42.706;23.306;2023-09-18T04:07:08;95692.09;;;15.62;100.00
43934;BME280;59081;42.706;23.306;2023-09-18T04:12:08;95686.09;;;15.64;100.00
43934;BME280;59081;42.706;23.306;2023-09-18T04:17:09;95680.63;;;15.51;100.00
43934;BME280;59081;42.706;23.306;2023-09-18T04:22:10;95695.97;;;15.65;100.00
43934;BME280;59081;42.706;23.306;2023-09-18T04:27:10;95694.88;;;15.62;100.00
43934;BME280;59081;42.706;23.306;2023-09-18T04:32:11;95708.19;;;15.77;100.00
43934;BME280;59081;42.706;23.306;2023-09-18T04:37:11;95712.44;;;15.59;100.00
43934;BME280;59081;42.706;23.306;2023-09-18T04:42:11;95587.56;;;14.88;100.00
43934;BME280;59081;42.706;23.306;2023-09-18T04:47:12;95622.00;;;15.09;100.00
43934;BME280;59081;42.706;23.306;2023-09-18T04:52:12;95591.41;;;14.91;100.00
43934;BME280;59081;42.706;23.306;2023-09-18T04:57:13;95694.63;;;15.79;100.00
43934;BME280;59081;42.706;23.306;2023-09-18T05:02:13;95657.31;;;15.49;100.00
43934;BME280;59081;42.706;23.306;2023-09-18T05:07:13;95634.63;;;15.41;100.00
43934;BME280;59081;42.706;23.306;2023-09-18T05:12:14;95699.94;;;16.04;100.00
43934;BME280;59081;42.706;23.306;2023-09-18T05:17:16;95621.31;;;15.58;100.00
43934;BME280;59081;42.706;23.306;2023-09-18T05:22:16;95633.97;;;15.77;100.00
43934;BME280;59081;42.706;23.306;2023-09-18T05:27:18;95593.03;;;15.50;100.00
43934;BME280;59081;42.706;23.306;2023-09-18T05:32:18;95636.66;;;15.90;100.00
43934;BME280;59081;42.706;23.306;2023-09-18T05:37:19;95660.59;;;16.42;98.47
43934;BME280;59081;42.706;23.306;2023-09-18T05:42:19;95595.13;;;16.14;96.91
43934;BME280;59081;42.706;23.306;2023-09-18T05:47:19;95628.47;;;16.59;95.16
43934;BME280;59081;42.706;23.306;2023-09-18T05:52:20;95628.88;;;16.94;93.95
43934;BME280;59081;42.706;23.306;2023-09-18T05:57:23;95613.00;;;16.58;93.62
43934;BME280;59081;42.706;23.306;2023-09-18T06:02:24;95705.81;;;17.16;94.04
43934;BME280;59081;42.706;23.306;2023-09-18T06:07:27;95627.97;;;16.88;93.10
43934;BME280;59081;42.706;23.306;2023-09-18T06:12:28;95655.56;;;17.19;92.02
43934;BME280;59081;42.706;23.306;2023-09-18T06:17:30;95679.25;;;17.66;90.13
43934;BME280;59081;42.706;23.306;2023-09-18T06:22:30;95742.78;;;18.09;89.74
43934;BME280;59081;42.706;23.306;2023-09-18T06:27:31;95738.53;;;18.23;88.30
43934;BME280;59081;42.706;23.306;2023-09-18T06:32:32;95609.22;;;17.73;87.62
43934;BME280;59081;42.706;23.306;2023-09-18T06:37:33;95625.09;;;18.29;84.04
43934;BME280;59081;42.706;23.306;2023-09-18T06:42:33;95623.13;;;18.44;82.58
43934;BME280;59081;42.706;23.306;2023-09-18T06:47:34;95679.88;;;18.95;81.31
43934;BME280;59081;42.706;23.306;2023-09-18T06:52:34;95690.47;;;19.05;81.16
43934;BME280;59081;42.706;23.306;2023-09-18T07:07:46;95596.09;;;18.51;79.37
43934;BME280;59081;42.706;23.306;2023-09-18T07:12:46;95695.50;;;19.31;79.36
43934;BME280;59081;42.706;23.306;2023-09-18T07:17:46;95659.78;;;19.20;78.15
43934;BME280;59081;42.706;23.306;2023-09-18T07:22:48;95724.47;;;20.12;76.80
43934;BME280;59081;42.706;23.306;2023-09-18T07:27:49;95675.47;;;19.97;75.04
43934;BME280;59081;42.706;23.306;2023-09-18T07:32:49;95747.84;;;20.44;73.78
43934;BME280;59081;42.706;23.306;2023-09-18T07:37:49;95599.41;;;19.72;74.03
43934;BME280;59081;42.706;23.306;2023-09-18T07:42:50;95693.31;;;20.20;74.53
43934;BME280;59081;42.706;23.306;2023-09-18T07:47:50;95708.03;;;20.75;72.09
43934;BME280;59081;42.706;23.306;2023-09-18T07:52:51;95668.75;;;20.90;69.54
43934;BME280;59081;42.706;23.306;2023-09-18T07:57:52;95646.72;;;21.03;68.78
43934;BME280;59081;42.706;23.306;2023-09-18T08:02:54;95685.06;;;21.17;68.89
43934;BME280;59081;42.706;23.306;2023-09-18T08:08:01;95685.16;;;21.23;68.48
43934;BME280;59081;42.706;23.306;2023-09-18T08:13:08;95646.19;;;21.25;67.39
43934;BME280;59081;42.706;23.306;2023-09-18T08:18:08;95594.31;;;21.35;65.63
43934;BME280;59081;42.706;23.306;2023-09-18T08:23:09;95707.53;;;22.17;64.04
43934;BME280;59081;42.706;23.306;2023-09-18T08:28:10;95653.25;;;22.20;63.94
43934;BME280;59081;42.706;23.306;2023-09-18T08:54:19;95695.72;;;23.21;59.85
43934;BME280;59081;42.706;23.306;2023-09-18T08:59:21;95686.31;;;23.30;58.11
43934;BME280;59081;42.706;23.306;2023-09-18T09:04:22;95694.25;;;23.37;58.76
43934;BME280;59081;42.706;23.306;2023-09-18T09:09:23;95616.81;;;23.58;57.80
43934;BME280;59081;42.706;23.306;2023-09-18T09:14:23;95605.28;;;23.45;56.17
43934;BME280;59081;42.706;23.306;2023-09-18T09:19:32;95691.56;;;24.61;53.59
43934;BME280;59081;42.706;23.306;2023-09-18T09:24:42;95646.63;;;24.17;54.71
43934;BME280;59081;42.706;23.306;2023-09-18T09:29:45;95686.19;;;24.63;53.01
43934;BME280;59081;42.706;23.306;2023-09-18T09:34:58;95613.63;;;24.17;53.51
43934;BME280;59081;42.706;23.306;2023-09-18T09:40:04;95660.44;;;24.20;53.82
43934;BME280;59081;42.706;23.306;2023-09-18T09:45:13;95671.59;;;25.12;50.99
43934;BME280;59081;42.706;23.306;2023-09-18T09:50:16;95656.06;;;25.00;50.06
43934;BME280;59081;42.706;23.306;2023-09-18T09:55:26;95669.38;;;25.40;49.71
43934;BME280;59081;42.706;23.306;2023-09-18T10:05:51;95626.38;;;25.28;49.26
43934;BME280;59081;42.706;23.306;2023-09-18T10:10:55;95607.19;;;25.57;46.74
43934;BME280;59081;42.706;23.306;2023-09-18T10:15:59;95582.13;;;25.18;46.52
43934;BME280;59081;42.706;23.306;2023-09-18T10:26:23;95585.91;;;26.34;44.09
43934;BME280;59081;42.706;23.306;2023-09-18T10:31:28;95613.25;;;27.20;42.30
43934;BME280;59081;42.706;23.306;2023-09-18T10:36:29;95601.34;;;26.71;41.87
43934;BME280;59081;42.706;23.306;2023-09-18T10:41:30;95606.28;;;27.40;40.46
43934;BME280;59081;42.706;23.306;2023-09-18T10:46:31;95602.41;;;27.56;40.84
43934;BME280;59081;42.706;23.306;2023-09-18T10:51:32;95603.50;;;27.02;41.74
43934;BME280;59081;42.706;23.306;2023-09-18T10:56:34;95522.13;;;26.20;42.69
43934;BME280;59081;42.706;23.306;2023-09-18T11:01:35;95553.03;;;27.25;40.76
43934;BME280;59081;42.706;23.306;2023-09-18T11:12:02;95578.66;;;27.14;40.60
43934;BME280;59081;42.706;23.306;2023-09-18T11:17:03;95521.03;;;27.17;40.77
43934;BME280;59081;42.706;23.306;2023-09-18T11:22:07;95534.03;;;26.88;40.33
43934;BME280;59081;42.706;23.306;2023-09-18T11:27:12;95564.06;;;27.10;40.34
43934;BME280;59081;42.706;23.306;2023-09-18T11:32:14;95554.53;;;26.57;40.38
43934;BME280;59081;42.706;23.306;2023-09-18T11:37:20;95551.28;;;27.22;40.79
43934;BME280;59081;42.706;23.306;2023-09-18T11:42:21;95516.16;;;27.18;39.60
43934;BME280;59081;42.706;23.306;2023-09-18T11:47:27;95485.69;;;26.60;40.19
43934;BME280;59081;42.706;23.306;2023-09-18T11:52:30;95465.22;;;26.86;39.80
43934;BME280;59081;42.706;23.306;2023-09-18T11:57:35;95463.03;;;26.79;41.19
43934;BME280;59081;42.706;23.306;2023-09-18T12:02:36;95519.16;;;27.52;39.79
43934;BME280;59081;42.706;23.306;2023-09-18T12:07:39;95398.88;;;27.19;38.73
43934;BME280;59081;42.706;23.306;2023-09-18T12:17:55;95494.72;;;27.22;40.89
43934;BME280;59081;42.706;23.306;2023-09-18T12:22:55;95526.38;;;27.92;39.70
43934;BME280;59081;42.706;23.306;2023-09-18T12:27:56;95485.00;;;27.89;39.08
43934;BME280;59081;42.706;23.306;2023-09-18T12:32:58;95474.69;;;27.20;40.51
43934;BME280;59081;42.706;23.306;2023-09-18T12:38:00;95515.75;;;26.95;41.81
43934;BME280;59081;42.706;23.306;2023-09-18T12:43:01;95483.00;;;27.31;40.44
43934;BME280;59081;42.706;23.306;2023-09-18T12:48:03;95478.06;;;27.64;38.65
43934;BME280;59081;42.706;23.306;2023-09-18T12:53:11;95449.22;;;27.79;37.05
43934;BME280;59081;42.706;23.306;2023-09-18T12:58:12;95488.59;;;26.86;39.29
43934;BME280;59081;42.706;23.306;2023-09-18T13:03:13;95470.28;;;26.42;39.90
43934;BME280;59081;42.706;23.306;2023-09-18T13:08:14;95485.59;;;27.29;39.43
43934;BME280;59081;42.706;23.306;2023-09-18T13:13:22;95479.34;;;28.63;37.39
43934;BME280;59081;42.706;23.306;2023-09-18T13:18:22;95452.69;;;28.45;36.65
43934;BME280;59081;42.706;23.306;2023-09-18T13:23:30;95439.28;;;27.72;38.05
43934;BME280;59081;42.706;23.306;2023-09-18T13:28:31;95457.81;;;27.73;38.32
43934;BME280;59081;42.706;23.306;2023-09-18T13:33:40;95478.66;;;27.30;38.79
43934;BME280;59081;42.706;23.306;2023-09-18T13:38:40;95409.16;;;26.90;38.24
43934;BME280;59081;42.706;23.306;2023-09-18T13:43:41;95479.56;;;27.52;37.81
43934;BME280;59081;42.706;23.306;2023-09-18T13:48:42;95426.84;;;27.22;37.87
43934;BME280;59081;42.706;23.306;2023-09-18T13:53:43;95413.38;;;27.42;37.08
43934;BME280;59081;42.706;23.306;2023-09-18T13:58:43;95479.88;;;28.27;35.83
43934;BME280;59081;42.706;23.306;2023-09-18T14:03:44;95424.53;;;28.26;35.23
43934;BME280;59081;42.706;23.306;2023-09-18T14:08:45;95406.56;;;28.11;34.94
43934;BME280;59081;42.706;23.306;2023-09-18T14:13:45;95457.28;;;28.82;34.70
43934;BME280;59081;42.706;23.306;2023-09-18T14:18:47;95461.25;;;28.19;37.48
43934;BME280;59081;42.706;23.306;2023-09-18T14:23:48;95453.38;;;28.72;37.09
43934;BME280;59081;42.706;23.306;2023-09-18T14:28:49;95419.81;;;27.82;38.56
43934;BME280;59081;42.706;23.306;2023-09-18T14:33:49;95421.63;;;27.92;39.07
43934;BME280;59081;42.706;23.306;2023-09-18T14:38:50;95459.31;;;27.74;39.59
43934;BME280;59081;42.706;23.306;2023-09-18T14:43:50;95457.09;;;26.82;41.77
43934;BME280;59081;42.706;23.306;2023-09-18T14:48:51;95469.31;;;25.96;44.14
43934;BME280;59081;42.706;23.306;2023-09-18T14:53:52;95402.88;;;25.52;44.43
43934;BME280;59081;42.706;23.306;2023-09-18T14:58:53;95427.81;;;25.24;45.09
43934;BME280;59081;42.706;23.306;2023-09-18T15:03:55;95365.06;;;24.39;46.19
43934;BME280;59081;42.706;23.306;2023-09-18T15:08:55;95439.66;;;24.87;47.00
43934;BME280;59081;42.706;23.306;2023-09-18T15:13:56;95395.13;;;24.55;46.96
43934;BME280;59081;42.706;23.306;2023-09-18T15:18:57;95422.38;;;24.72;47.25
43934;BME280;59081;42.706;23.306;2023-09-18T15:24:02;95413.16;;;24.71;48.09
43934;BME280;59081;42.706;23.306;2023-09-18T15:29:04;95453.44;;;24.96;50.38
43934;BME280;59081;42.706;23.306;2023-09-18T15:34:04;95430.59;;;24.70;49.93
43934;BME280;59081;42.706;23.306;2023-09-18T15:39:05;95446.53;;;24.61;49.96
43934;BME280;59081;42.706;23.306;2023-09-18T15:44:05;95400.66;;;24.37;52.41
43934;BME280;59081;42.706;23.306;2023-09-18T15:49:06;95419.25;;;24.04;51.21
43934;BME280;59081;42.706;23.306;2023-09-18T15:54:07;95312.91;;;23.50;52.27
43934;BME280;59081;42.706;23.306;2023-09-18T15:59:08;95373.97;;;23.61;52.43
43934;BME280;59081;42.706;23.306;2023-09-18T16:04:09;95359.44;;;23.46;52.85
43934;BME280;59081;42.706;23.306;2023-09-18T16:09:09;95407.47;;;23.42;53.20
43934;BME280;59081;42.706;23.306;2023-09-18T16:14:10;95436.88;;;23.41;54.46
43934;BME280;59081;42.706;23.306;2023-09-18T16:19:11;95404.50;;;23.18;54.18
43934;BME280;59081;42.706;23.306;2023-09-18T16:24:11;95464.72;;;23.39;54.65
43934;BME280;59081;42.706;23.306;2023-09-18T16:29:12;95460.72;;;23.18;55.07
43934;BME280;59081;42.706;23.306;2023-09-18T16:34:12;95475.78;;;23.09;55.54
43934;BME280;59081;42.706;23.306;2023-09-18T16:39:12;95410.44;;;22.42;57.37
43934;BME280;59081;42.706;23.306;2023-09-18T16:44:16;95464.53;;;22.76;57.78
43934;BME280;59081;42.706;23.306;2023-09-18T16:49:17;95440.03;;;22.48;58.13
43934;BME280;59081;42.706;23.306;2023-09-18T16:54:22;95466.34;;;22.62;58.67
43934;BME280;59081;42.706;23.306;2023-09-18T16:59:22;95436.94;;;22.35;58.00
43934;BME280;59081;42.706;23.306;2023-09-18T17:04:27;95452.53;;;22.42;58.32
43934;BME280;59081;42.706;23.306;2023-09-18T17:09:27;95497.22;;;22.73;58.28
43934;BME280;59081;42.706;23.306;2023-09-18T17:14:28;95492.59;;;22.42;58.79
43934;BME280;59081;42.706;23.306;2023-09-18T17:19:29;95431.72;;;21.83;59.27
43934;BME280;59081;42.706;23.306;2023-09-18T17:24:30;95388.09;;;21.60;59.49
43934;BME280;59081;42.706;23.306;2023-09-18T17:29:34;95415.16;;;21.80;58.55
43934;BME280;59081;42.706;23.306;2023-09-18T17:34:35;95492.44;;;21.92;58.14
43934;BME280;59081;42.706;23.306;2023-09-18T17:39:36;95445.84;;;21.41;57.58
43934;BME280;59081;42.706;23.306;2023-09-18T17:44:36;95455.28;;;21.43;57.69
43934;BME280;59081;42.706;23.306;2023-09-18T17:49:37;95502.94;;;21.49;57.97
43934;BME280;59081;42.706;23.306;2023-09-18T17:54:38;95521.34;;;21.61;57.56
43934;BME280;59081;42.706;23.306;2023-09-18T17:59:39;95465.00;;;21.16;57.82
43934;BME280;59081;42.706;23.306;2023-09-18T18:04:39;95485.06;;;21.04;58.17
43934;BME280;59081;42.706;23.306;2023-09-18T18:09:39;95486.03;;;20.95;58.52
43934;BME280;59081;42.706;23.306;2023-09-18T18:14:40;95475.59;;;20.64;58.77
43934;BME280;59081;42.706;23.306;2023-09-18T18:19:40;95495.59;;;20.83;58.17
43934;BME280;59081;42.706;23.306;2023-09-18T18:24:41;95469.34;;;20.49;58.57
43934;BME280;59081;42.706;23.306;2023-09-18T18:29:41;95479.06;;;20.54;58.62
43934;BME280;59081;42.706;23.306;2023-09-18T18:34:42;95452.97;;;20.36;58.36
43934;BME280;59081;42.706;23.306;2023-09-18T18:39:45;95482.69;;;20.60;58.37
43934;BME280;59081;42.706;23.306;2023-09-18T18:44:45;95549.81;;;21.11;58.15
43934;BME280;59081;42.706;23.306;2023-09-18T18:49:49;95512.66;;;20.85;58.72
43934;BME280;59081;42.706;23.306;2023-09-18T18:54:49;95474.38;;;20.39;58.76
43934;BME280;59081;42.706;23.306;2023-09-18T18:59:50;95479.81;;;20.28;59.21
43934;BME280;59081;42.706;23.306;2023-09-18T19:04:51;95491.16;;;20.19;59.66
43934;BME280;59081;42.706;23.306;2023-09-18T19:09:52;95416.22;;;19.51;60.53
43934;BME280;59081;42.706;23.306;2023-09-18T19:14:52;95514.69;;;20.07;60.74
43934;BME280;59081;42.706;23.306;2023-09-18T19:19:55;95532.28;;;19.93;61.69
43934;BME280;59081;42.706;23.306;2023-09-18T19:24:56;95441.84;;;18.94;62.93
43934;BME280;59081;42.706;23.306;2023-09-18T19:29:56;95490.16;;;19.00;63.79
43934;BME280;59081;42.706;23.306;2023-09-18T19:34:57;95411.41;;;18.47;63.54
43934;BME280;59081;42.706;23.306;2023-09-18T19:39:58;95510.28;;;19.04;63.48
43934;BME280;59081;42.706;23.306;2023-09-18T19:44:58;95526.03;;;19.07;63.64
43934;BME280;59081;42.706;23.306;2023-09-18T19:49:59;95564.28;;;19.01;64.52
43934;BME280;59081;42.706;23.306;2023-09-18T19:55:00;95566.94;;;19.10;64.65
43934;BME280;59081;42.706;23.306;2023-09-18T20:00:00;95423.16;;;18.06;64.98
43934;BME280;59081;42.706;23.306;2023-09-18T20:05:04;95564.78;;;18.85;65.34
43934;BME280;59081;42.706;23.306;2023-09-18T20:10:05;95577.38;;;18.81;65.70
43934;BME280;59081;42.706;23.306;2023-09-18T20:15:06;95502.69;;;18.17;66.15
43934;BME280;59081;42.706;23.306;2023-09-18T20:20:08;95480.38;;;18.17;65.79
43934;BME280;59081;42.706;23.306;2023-09-18T20:25:10;95518.84;;;18.27;66.07
43934;BME280;59081;42.706;23.306;2023-09-18T20:30:13;95489.16;;;17.86;66.82
43934;BME280;59081;42.706;23.306;2023-09-18T20:40:27;95496.28;;;17.87;65.77
43934;BME280;59081;42.706;23.306;2023-09-18T20:45:27;95485.63;;;17.61;66.34
43934;BME280;59081;42.706;23.306;2023-09-18T20:55:38;95504.34;;;17.85;65.95
43934;BME280;59081;42.706;23.306;2023-09-18T21:00:43;95487.13;;;17.71;65.89
43934;BME280;59081;42.706;23.306;2023-09-18T21:05:44;95475.47;;;17.49;66.27
43934;BME280;59081;42.706;23.306;2023-09-18T21:10:46;95480.19;;;17.43;66.28
43934;BME280;59081;42.706;23.306;2023-09-18T21:15:49;95445.81;;;16.98;66.78
43934;BME280;59081;42.706;23.306;2023-09-18T21:20:59;95572.41;;;17.93;66.49
43934;BME280;59081;42.706;23.306;2023-09-18T21:26:00;95476.88;;;17.30;66.87
43934;BME280;59081;42.706;23.306;2023-09-18T21:31:10;95414.25;;;16.78;67.14
43934;BME280;59081;42.706;23.306;2023-09-18T21:36:14;95478.53;;;17.13;67.12
43934;BME280;59081;42.706;23.306;2023-09-18T21:41:15;95486.19;;;16.94;67.58
43934;BME280;59081;42.706;23.306;2023-09-18T21:46:17;95577.19;;;17.45;67.58
43934;BME280;59081;42.706;23.306;2023-09-18T21:51:17;95431.75;;;16.27;67.99
43934;BME280;59081;42.706;23.306;2023-09-18T21:56:18;95449.63;;;16.35;67.98
43934;BME280;59081;42.706;23.306;2023-09-18T22:01:22;95453.94;;;16.36;68.37
43934;BME280;59081;42.706;23.306;2023-09-18T22:06:22;95457.56;;;16.18;69.33
43934;BME280;59081;42.706;23.306;2023-09-18T22:11:23;95525.41;;;16.63;69.36
43934;BME280;59081;42.706;23.306;2023-09-18T22:16:24;95447.88;;;16.05;69.57
43934;BME280;59081;42.706;23.306;2023-09-18T22:21:25;95517.72;;;16.40;69.68
43934;BME280;59081;42.706;23.306;2023-09-18T22:26:26;95437.72;;;15.83;69.54
43934;BME280;59081;42.706;23.306;2023-09-18T22:31:26;95528.25;;;16.17;70.28
43934;BME280;59081;42.706;23.306;2023-09-18T22:36:27;95563.59;;;16.35;71.13
43934;BME280;59081;42.706;23.306;2023-09-18T22:57:47;95575.69;;;16.05;74.98
43934;BME280;59081;42.706;23.306;2023-09-18T23:02:48;95498.78;;;15.47;75.56
43934;BME280;59081;42.706;23.306;2023-09-18T23:07:51;95544.19;;;15.80;75.69
43934;BME280;59081;42.706;23.306;2023-09-18T23:12:53;95456.50;;;15.15;76.03
43934;BME280;59081;42.706;23.306;2023-09-18T23:17:53;95464.97;;;15.21;76.69
43934;BME280;59081;42.706;23.306;2023-09-18T23:22:55;95515.16;;;15.63;76.06
43934;BME280;59081;42.706;23.306;2023-09-18T23:27:56;95514.66;;;15.37;77.81
43934;BME280;59081;42.706;23.306;2023-09-18T23:32:58;95601.59;;;16.11;77.49
43934;BME280;59081;42.706;23.306;2023-09-18T23:38:06;95543.06;;;15.59;78.72
43934;BME280;59081;42.706;23.306;2023-09-18T23:43:10;95517.72;;;15.30;79.40
43934;BME280;59081;42.706;23.306;2023-09-18T23:53:22;95476.03;;;15.03;80.30
43934;BME280;59081;42.706;23.306;2023-09-18T23:58:24;95595.44;;;15.88;80.22
